Alberhill, CA

1:23 PM PST on February 28, 2015 (GMT -0800)
The Jonesranch | Change Station
CLOSE
Current Station
Personal Weather Station
Location: Rancho Capistrano, Ca
Elevation: 3100 ft
Nearby Weather Stations

Elev 3100 ft 33.61 °N, 117.36 °W | Updated 4 seconds ago

Overcast
Overcast
46.1 °F
Feels Like 46 °F
N
0.0
Wind Variable Wind from SSE
Gusts 5.0 mph

Today
High -- | Low -- °F
--% Chance of Precip.
Yesterday
High -- | Low -- °F
Precip. -- in
6:19 AM 5:45 PM
Waxing Gibbous, 80% visible
Pressure 29.86 in
Visibility 10.0 miles
Clouds Scattered Clouds 3200 ft
Mostly Cloudy 4100 ft
Mostly Cloudy 5500 ft
Windchill 46 °F
Dew Point 46 °F
Humidity 100%
Rainfall 0.14 in
Snow Depth Not available.
UV 4 out of 12
Pollen 8.50 out of 12
Air Quality Not available.
Flu Activity Not available.
METAR KF70 282115Z AUTO 23006KT 10SM SCT032 BKN041 BKN055 13/08 A2986 RMK AO1 P0001

More Conditions Fewer Conditions

Pressure 29.86 in
Visibility 10.0 miles
Clouds Scattered Clouds 3200 ft
Mostly Cloudy 4100 ft
Mostly Cloudy 5500 ft
Windchill 46 °F
Dew Point 46 °F
Humidity 100%
Rainfall 0.14 in
Snow Depth Not available.
UV 4 out of 12
Pollen 8.50 out of 12
Air Quality Not available.
Flu Activity Not available.
METAR KF70 282115Z AUTO 23006KT 10SM SCT032 BKN041 BKN055 13/08 A2986 RMK AO1 P0001

More Conditions Fewer Conditions

10-Day Weather Forecast

Almanac

Astronomy

Feb. 28, 2015 Rise Set
Actual Time
Civil Twilight
Nautical Twilight
Astronomical Twilight
Moon
Length of Visible Light
Length of Day
Tomorrow will be .
, % of the Moon is Illuminated

Today's Extremes

State Highs State Lows

Community

WunderPhotos

Upload Photos

1,801,152 photos uploaded!

WunderBlogs® & News

Nearby

Air Quality

  Air Quality AQ Index Pollutant
Not available.

Snow Depth

Station Depth Elevation

Earthquake Activity

City Distance Mag. Time & Date
Minimum magnitude displayed is 2.5.

Coastal Water Temperatures

Place Temperature

Nearby Weather Stations